Time;durP1;ratioP1;P1;durP2;ratioP2;P2;SDS_P1;SDS_P2;PMS_P1;PMS_P2;Temp;Humidity;BMP_temperature;BMP_pressure;BME280_temperature;BME280_humidity;BME280_pressure;Samples;Min_cycle;Max_cycle;Signal;HPM_P1;HPM_P2
2024/01/03 00:01:21;;;;;;;1999.90;999.90;;;;;;;;;;5085587;28;20573;-71
2024/01/03 00:03:48;;;;;;;1999.90;999.90;;;;;;;;;;5055542;28;20194;-68
2024/01/03 00:06:16;;;;;;;1999.90;999.90;;;;;;;;;;5084883;28;20225;-72
2024/01/03 00:08:45;;;;;;;1999.90;999.90;;;;;;;;;;5086499;28;20194;-69
2024/01/03 00:11:15;;;;;;;1999.90;999.90;;;;;;;;;;5085125;28;20189;-69
2024/01/03 00:14:01;;;;;;;1999.90;999.90;;;;;;;;;;5086255;28;20194;-70
2024/01/03 00:16:29;;;;;;;1999.90;999.90;;;;;;;;;;5069065;28;20209;-70
2024/01/03 00:18:58;;;;;;;1999.90;999.90;;;;;;;;;;5085732;28;20276;-76
2024/01/03 00:21:26;;;;;;;1999.90;999.90;;;;;;;;;;5087124;28;20501;-79
2024/01/03 00:23:56;;;;;;;1999.90;999.90;;;;;;;;;;5085292;28;20193;-72
2024/01/03 00:26:24;;;;;;;1999.90;999.90;;;;;;;;;;5087416;28;20194;-77
2024/01/03 00:28:51;;;;;;;1999.90;999.90;;;;;;;;;;5086359;28;20194;-71
2024/01/03 00:31:28;;;;;;;1999.90;999.90;;;;;;;;;;5090084;28;20197;-68
2024/01/03 00:33:55;;;;;;;1999.90;999.90;;;;;;;;;;5087855;28;20185;-70
2024/01/03 00:36:23;;;;;;;1999.90;999.90;;;;;;;;;;5070270;28;20191;-72
2024/01/03 00:38:50;;;;;;;1999.90;999.90;;;;;;;;;;5052148;28;20219;-84
2024/01/03 00:41:19;;;;;;;1999.90;999.90;;;;;;;;;;5069686;28;20196;-68
2024/01/03 00:43:46;;;;;;;1999.90;999.90;;;;;;;;;;5071085;28;20199;-70
2024/01/03 00:46:14;;;;;;;1999.90;999.90;;;;;;;;;;5071039;28;20277;-81
2024/01/03 00:48:41;;;;;;;1999.90;999.90;;;;;;;;;;5069829;28;20202;-73
2024/01/03 00:51:09;;;;;;;1999.90;999.90;;;;;;;;;;5071551;28;20224;-77
2024/01/03 00:53:36;;;;;;;1999.90;999.90;;;;;;;;;;5069353;28;20213;-72
2024/01/03 00:56:05;;;;;;;1999.90;999.90;;;;;;;;;;5070661;28;20198;-70
2024/01/03 00:58:34;;;;;;;1999.90;999.90;;;;;;;;;;5069102;28;20281;-72
2024/01/03 01:01:02;;;;;;;1999.90;999.90;;;;;;;;;;5069763;28;20201;-75
2024/01/03 01:03:29;;;;;;;1999.90;999.90;;;;;;;;;;5069547;28;20208;-73
2024/01/03 01:05:56;;;;;;;1999.90;999.90;;;;;;;;;;5069038;28;20233;-75
2024/01/03 01:08:24;;;;;;;1999.90;999.90;;;;;;;;;;5069855;28;20226;-78
2024/01/03 01:10:51;;;;;;;1999.90;999.90;;;;;;;;;;5067806;28;20197;-69
2024/01/03 01:13:18;;;;;;;1999.90;999.90;;;;;;;;;;5070290;28;20207;-73
2024/01/03 01:15:47;;;;;;;1999.90;999.90;;;;;;;;;;5068177;28;20212;-70
2024/01/03 01:18:14;;;;;;;1999.90;999.90;;;;;;;;;;5069913;28;20195;-68
2024/01/03 01:20:42;;;;;;;1999.90;999.90;;;;;;;;;;5068570;28;20201;-73
2024/01/03 01:23:09;;;;;;;1999.90;999.90;;;;;;;;;;5068964;28;20684;-72
2024/01/03 01:25:36;;;;;;;1999.90;999.90;;;;;;;;;;5069930;28;20225;-73
2024/01/03 01:28:04;;;;;;;1999.90;999.90;;;;;;;;;;5067913;28;20191;-70
2024/01/03 01:30:31;;;;;;;1999.90;999.90;;;;;;;;;;5067885;28;20203;-70
2024/01/03 01:33:00;;;;;;;1999.90;999.90;;;;;;;;;;5067648;28;20202;-69
2024/01/03 01:35:27;;;;;;;1999.90;999.90;;;;;;;;;;5084714;28;20592;-68
2024/01/03 01:37:55;;;;;;;1999.90;999.90;;;;;;;;;;5087862;28;20227;-69
2024/01/03 01:40:22;;;;;;;1999.90;999.90;;;;;;;;;;5088491;28;20540;-70
2024/01/03 01:42:49;;;;;;;1999.90;999.90;;;;;;;;;;5070409;28;20228;-70
2024/01/03 01:45:16;;;;;;;1999.90;999.90;;;;;;;;;;5088452;28;20183;-70
2024/01/03 01:47:44;;;;;;;1999.90;999.90;;;;;;;;;;5088780;28;20221;-73
2024/01/03 01:50:13;;;;;;;1999.90;999.90;;;;;;;;;;5085918;28;20203;-74
2024/01/03 01:52:41;;;;;;;1999.90;999.90;;;;;;;;;;5088680;28;20201;-76
2024/01/03 01:55:09;;;;;;;1999.90;999.90;;;;;;;;;;5087736;28;20223;-69
2024/01/03 01:57:37;;;;;;;1999.90;999.90;;;;;;;;;;5088811;28;20201;-72
2024/01/03 02:00:06;;;;;;;1999.90;999.90;;;;;;;;;;5087879;28;20201;-72
2024/01/03 02:02:33;;;;;;;1999.90;999.90;;;;;;;;;;5081218;28;20944;-73
2024/01/03 02:05:00;;;;;;;1999.90;999.90;;;;;;;;;;5091957;28;20221;-73
2024/01/03 02:07:29;;;;;;;1999.90;999.90;;;;;;;;;;5087764;28;20197;-76
2024/01/03 02:09:56;;;;;;;1999.90;999.90;;;;;;;;;;5088087;28;20188;-72
2024/01/03 02:12:27;;;;;;;1999.90;999.90;;;;;;;;;;5087875;28;20228;-75
2024/01/03 02:14:55;;;;;;;1999.90;999.90;;;;;;;;;;5087710;28;20190;-72
2024/01/03 02:17:22;;;;;;;1999.90;999.90;;;;;;;;;;5088918;28;20202;-77
2024/01/03 02:19:50;;;;;;;1999.90;999.90;;;;;;;;;;5086462;28;20197;-73
2024/01/03 02:22:18;;;;;;;1999.90;999.90;;;;;;;;;;5070369;28;20238;-75
2024/01/03 02:24:46;;;;;;;1999.90;999.90;;;;;;;;;;5068865;28;20648;-77
2024/01/03 02:27:13;;;;;;;1999.90;999.90;;;;;;;;;;5088872;28;20209;-74
2024/01/03 02:29:40;;;;;;;1999.90;999.90;;;;;;;;;;5068241;28;20196;-68
2024/01/03 02:32:08;;;;;;;1999.90;999.90;;;;;;;;;;5087468;28;20209;-71
2024/01/03 02:34:36;;;;;;;1999.90;999.90;;;;;;;;;;5064648;28;20230;-68
2024/01/03 02:37:03;;;;;;;1999.90;999.90;;;;;;;;;;5066746;28;20587;-72
2024/01/03 02:39:32;;;;;;;1999.90;999.90;;;;;;;;;;5067962;28;20210;-71
2024/01/03 02:41:59;;;;;;;1999.90;999.90;;;;;;;;;;5066027;28;20197;-68
2024/01/03 02:44:27;;;;;;;1999.90;999.90;;;;;;;;;;5067682;28;20198;-68
2024/01/03 02:46:55;;;;;;;1999.90;999.90;;;;;;;;;;5065651;28;20309;-72
2024/01/03 02:49:22;;;;;;;1999.90;999.90;;;;;;;;;;5067604;28;21031;-71
2024/01/03 02:51:51;;;;;;;1999.90;999.90;;;;;;;;;;5065931;28;20567;-72
2024/01/03 02:54:18;;;;;;;1999.90;999.90;;;;;;;;;;5066469;28;20209;-68
2024/01/03 02:56:47;;;;;;;1999.90;999.90;;;;;;;;;;5067361;28;20669;-69
2024/01/03 02:59:14;;;;;;;1999.90;999.90;;;;;;;;;;5065780;28;20194;-71
2024/01/03 03:01:41;;;;;;;1999.90;999.90;;;;;;;;;;5067072;28;20195;-72
2024/01/03 03:04:09;;;;;;;1999.90;999.90;;;;;;;;;;5065729;28;20235;-74
2024/01/03 03:06:36;;;;;;;1999.90;999.90;;;;;;;;;;5067162;28;20194;-73
2024/01/03 03:09:04;;;;;;;1999.90;999.90;;;;;;;;;;5065692;28;20585;-67
2024/01/03 03:11:31;;;;;;;1999.90;999.90;;;;;;;;;;5066726;28;20205;-68
2024/01/03 03:14:00;;;;;;;1999.90;999.90;;;;;;;;;;5067065;28;20220;-68
2024/01/03 03:16:28;;;;;;;1999.90;999.90;;;;;;;;;;5065666;28;20190;-67
2024/01/03 03:18:55;;;;;;;1999.90;999.90;;;;;;;;;;5066896;28;20197;-71
2024/01/03 03:21:22;;;;;;;1999.90;999.90;;;;;;;;;;5065036;28;20205;-69
2024/01/03 03:23:50;;;;;;;1999.90;999.90;;;;;;;;;;5066861;28;20224;-68
2024/01/03 03:26:17;;;;;;;1999.90;999.90;;;;;;;;;;5070099;28;20200;-72
2024/01/03 03:28:45;;;;;;;1999.90;999.90;;;;;;;;;;5070144;28;20215;-72
2024/01/03 03:31:14;;;;;;;1999.90;999.90;;;;;;;;;;5076059;28;20201;-70
2024/01/03 03:33:41;;;;;;;1999.90;999.90;;;;;;;;;;5071336;28;20215;-72
2024/01/03 03:36:13;;;;;;;1999.90;999.90;;;;;;;;;;5088388;28;20197;-71
2024/01/03 03:38:40;;;;;;;1999.90;999.90;;;;;;;;;;5099276;28;20212;-70
2024/01/03 03:41:11;;;;;;;1999.90;999.90;;;;;;;;;;5098077;28;20208;-67
2024/01/03 03:43:39;;;;;;;1999.90;999.90;;;;;;;;;;5083139;28;20251;-71
2024/01/03 03:46:06;;;;;;;1999.90;999.90;;;;;;;;;;5097764;28;20197;-68
2024/01/03 03:48:35;;;;;;;1999.90;999.90;;;;;;;;;;5090264;28;20262;-69
2024/01/03 03:51:03;;;;;;;1999.90;999.90;;;;;;;;;;5091107;28;20644;-73
2024/01/03 03:53:30;;;;;;;1999.90;999.90;;;;;;;;;;5071878;28;20197;-67
2024/01/03 03:55:57;;;;;;;1999.90;999.90;;;;;;;;;;5080064;28;20200;-70
2024/01/03 03:58:25;;;;;;;1999.90;999.90;;;;;;;;;;5089611;28;20208;-69
2024/01/03 04:00:52;;;;;;;1999.90;999.90;;;;;;;;;;5085418;28;20193;-69
2024/01/03 04:03:19;;;;;;;1999.90;999.90;;;;;;;;;;5091149;28;20569;-71
2024/01/03 04:05:48;;;;;;;1999.90;999.90;;;;;;;;;;5090170;28;20538;-68
2024/01/03 04:08:15;;;;;;;1999.90;999.90;;;;;;;;;;5089802;28;20205;-69
2024/01/03 04:10:43;;;;;;;1999.90;999.90;;;;;;;;;;5086659;28;20201;-70
2024/01/03 04:13:10;;;;;;;1999.90;999.90;;;;;;;;;;5093103;28;20193;-67
2024/01/03 04:15:37;;;;;;;1999.90;999.90;;;;;;;;;;5068698;28;20190;-68
2024/01/03 04:18:05;;;;;;;1999.90;999.90;;;;;;;;;;5098606;28;20212;-67
2024/01/03 04:20:32;;;;;;;1999.90;999.90;;;;;;;;;;5094376;28;20195;-66
2024/01/03 04:23:01;;;;;;;1999.90;999.90;;;;;;;;;;5087559;28;20216;-67
2024/01/03 04:25:28;;;;;;;1999.90;999.90;;;;;;;;;;5097072;28;20203;-67
2024/01/03 04:27:55;;;;;;;1999.90;999.90;;;;;;;;;;5094925;28;20666;-67
2024/01/03 04:30:23;;;;;;;1999.90;999.90;;;;;;;;;;5098199;28;20201;-69
2024/01/03 04:32:50;;;;;;;1999.90;999.90;;;;;;;;;;5086448;28;20192;-71
2024/01/03 04:35:17;;;;;;;1999.90;999.90;;;;;;;;;;5067003;28;20237;-66
2024/01/03 04:37:45;;;;;;;1999.90;999.90;;;;;;;;;;5086212;28;20198;-66
2024/01/03 04:40:16;;;;;;;1999.90;999.90;;;;;;;;;;5071354;28;20252;-67
2024/01/03 04:42:44;;;;;;;1999.90;999.90;;;;;;;;;;5076885;28;20215;-67
2024/01/03 04:45:11;;;;;;;1999.90;999.90;;;;;;;;;;5094065;28;20644;-67
2024/01/03 04:47:39;;;;;;;1999.90;999.90;;;;;;;;;;5086409;28;20189;-69
2024/01/03 04:50:06;;;;;;;1999.90;999.90;;;;;;;;;;5085492;28;20200;-67
2024/01/03 04:52:34;;;;;;;1999.90;999.90;;;;;;;;;;5088422;28;20201;-73
2024/01/03 04:55:02;;;;;;;1999.90;999.90;;;;;;;;;;5088846;28;20204;-69
2024/01/03 04:57:30;;;;;;;1999.90;999.90;;;;;;;;;;5092518;28;20201;-70
2024/01/03 04:59:58;;;;;;;1999.90;999.90;;;;;;;;;;5088693;28;20194;-67
2024/01/03 05:02:25;;;;;;;1999.90;999.90;;;;;;;;;;5089893;28;20198;-69
2024/01/03 05:04:52;;;;;;;1999.90;999.90;;;;;;;;;;5095681;28;20646;-70
2024/01/03 05:07:20;;;;;;;1999.90;999.90;;;;;;;;;;5091014;28;20283;-68
2024/01/03 05:09:47;;;;;;;1999.90;999.90;;;;;;;;;;5092982;28;20583;-69
2024/01/03 05:12:14;;;;;;;1999.90;999.90;;;;;;;;;;5090660;28;20203;-70
2024/01/03 05:14:43;;;;;;;1999.90;999.90;;;;;;;;;;5096764;28;20212;-70
2024/01/03 05:17:10;;;;;;;1999.90;999.90;;;;;;;;;;5097260;28;20629;-72
2024/01/03 05:19:38;;;;;;;1999.90;999.90;;;;;;;;;;5091295;28;20555;-72
2024/01/03 05:22:05;;;;;;;1999.90;999.90;;;;;;;;;;5081268;28;20203;-70
2024/01/03 05:24:32;;;;;;;1999.90;999.90;;;;;;;;;;5097059;28;20724;-74
2024/01/03 05:27:00;;;;;;;1999.90;999.90;;;;;;;;;;5095894;28;20200;-74
2024/01/03 05:29:27;;;;;;;1999.90;999.90;;;;;;;;;;5093082;28;20202;-73
2024/01/03 05:31:56;;;;;;;1999.90;999.90;;;;;;;;;;5079331;28;20201;-75
2024/01/03 05:34:23;;;;;;;1999.90;999.90;;;;;;;;;;5101369;28;20220;-76
2024/01/03 05:36:51;;;;;;;1999.90;999.90;;;;;;;;;;5094507;28;20263;-76
2024/01/03 05:39:18;;;;;;;1999.90;999.90;;;;;;;;;;5096997;28;20203;-73
2024/01/03 05:41:45;;;;;;;1999.90;999.90;;;;;;;;;;5097870;28;20196;-68
2024/01/03 05:44:13;;;;;;;1999.90;999.90;;;;;;;;;;5091829;28;20233;-67
2024/01/03 05:46:40;;;;;;;1999.90;999.90;;;;;;;;;;5102109;28;20186;-68
2024/01/03 05:49:09;;;;;;;1999.90;999.90;;;;;;;;;;5096996;28;20201;-67
2024/01/03 05:51:36;;;;;;;1999.90;999.90;;;;;;;;;;5096642;28;20652;-67
2024/01/03 05:54:04;;;;;;;1999.90;999.90;;;;;;;;;;5098939;28;20199;-65
2024/01/03 05:56:31;;;;;;;1999.90;999.90;;;;;;;;;;5094511;28;20604;-70
2024/01/03 05:58:59;;;;;;;1999.90;999.90;;;;;;;;;;5090040;28;20185;-69
2024/01/03 06:01:26;;;;;;;1999.90;999.90;;;;;;;;;;5096956;28;20665;-68
2024/01/03 06:03:53;;;;;;;1999.90;999.90;;;;;;;;;;5073991;28;20226;-67
2024/01/03 06:06:22;;;;;;;1999.90;999.90;;;;;;;;;;5084999;28;20190;-71
2024/01/03 06:08:49;;;;;;;1999.90;999.90;;;;;;;;;;5086037;28;20638;-67
2024/01/03 06:11:17;;;;;;;1999.90;999.90;;;;;;;;;;5085136;28;20212;-67
2024/01/03 06:13:44;;;;;;;1999.90;999.90;;;;;;;;;;5085573;28;20579;-68
2024/01/03 06:16:11;;;;;;;1999.90;999.90;;;;;;;;;;5089265;28;20196;-69
2024/01/03 06:18:39;;;;;;;1999.90;999.90;;;;;;;;;;5088261;28;20200;-73
2024/01/03 06:21:11;;;;;;;1999.90;999.90;;;;;;;;;;5089168;28;21166;-71
2024/01/03 06:23:40;;;;;;;1999.90;999.90;;;;;;;;;;5088327;28;20208;-79
2024/01/03 06:26:09;;;;;;;1999.90;999.90;;;;;;;;;;5086171;28;20188;-75
2024/01/03 06:28:36;;;;;;;1999.90;999.90;;;;;;;;;;5084562;28;20198;-71
2024/01/03 06:31:04;;;;;;;1999.90;999.90;;;;;;;;;;5068975;28;20196;-73
2024/01/03 06:33:32;;;;;;;1999.90;999.90;;;;;;;;;;5095973;28;20562;-78
2024/01/03 06:35:59;;;;;;;1999.90;999.90;;;;;;;;;;5070500;28;20244;-72
2024/01/03 06:38:28;;;;;;;1999.90;999.90;;;;;;;;;;5067813;28;20204;-71
2024/01/03 06:40:57;;;;;;;1999.90;999.90;;;;;;;;;;5066874;28;20189;-77
2024/01/03 06:43:24;;;;;;;1999.90;999.90;;;;;;;;;;5064446;28;20227;-74
2024/01/03 06:45:51;;;;;;;1999.90;999.90;;;;;;;;;;5066512;28;20189;-72
2024/01/03 06:48:19;;;;;;;1999.90;999.90;;;;;;;;;;5035656;28;20201;-73
2024/01/03 06:50:46;;;;;;;1999.90;999.90;;;;;;;;;;5029786;28;20685;-70
2024/01/03 06:53:13;;;;;;;1999.90;999.90;;;;;;;;;;5047775;28;20219;-74
2024/01/03 06:55:41;;;;;;;1999.90;999.90;;;;;;;;;;5038312;28;20201;-70
2024/01/03 06:58:09;;;;;;;1999.90;999.90;;;;;;;;;;5058747;28;20205;-73
2024/01/03 07:00:37;;;;;;;1999.90;999.90;;;;;;;;;;5067518;28;20210;-72
2024/01/03 07:03:05;;;;;;;1999.90;999.90;;;;;;;;;;5067166;28;20305;-71
2024/01/03 07:05:32;;;;;;;1999.90;999.90;;;;;;;;;;5067683;28;20201;-74
2024/01/03 07:08:01;;;;;;;1999.90;999.90;;;;;;;;;;5061300;28;20269;-71
2024/01/03 07:10:31;;;;;;;1999.90;999.90;;;;;;;;;;5065996;28;20221;-67
2024/01/03 07:12:59;;;;;;;1999.90;999.90;;;;;;;;;;5053534;28;20248;-76
2024/01/03 07:15:28;;;;;;;1999.90;999.90;;;;;;;;;;5065014;28;20209;-73
2024/01/03 07:17:55;;;;;;;1999.90;999.90;;;;;;;;;;5067260;28;20537;-80
2024/01/03 07:20:23;;;;;;;1999.90;999.90;;;;;;;;;;5066017;28;20208;-77
2024/01/03 07:22:50;;;;;;;1999.90;999.90;;;;;;;;;;5065251;28;20207;-73
2024/01/03 07:25:17;;;;;;;1999.90;999.90;;;;;;;;;;5067145;28;20221;-70
2024/01/03 07:27:45;;;;;;;1999.90;999.90;;;;;;;;;;5066168;28;20207;-78
2024/01/03 07:30:13;;;;;;;1999.90;999.90;;;;;;;;;;5062254;28;21126;-69
2024/01/03 07:32:42;;;;;;;1999.90;999.90;;;;;;;;;;5066453;28;20199;-77
2024/01/03 07:35:09;;;;;;;1999.90;999.90;;;;;;;;;;5071909;28;20228;-71
2024/01/03 07:37:37;;;;;;;1999.90;999.90;;;;;;;;;;5066603;28;20686;-74
2024/01/03 07:40:04;;;;;;;1999.90;999.90;;;;;;;;;;5066878;28;20201;-78
2024/01/03 07:42:32;;;;;;;1999.90;999.90;;;;;;;;;;5061734;28;20278;-75
2024/01/03 07:44:59;;;;;;;1999.90;999.90;;;;;;;;;;5059913;28;20252;-75
2024/01/03 07:47:26;;;;;;;1999.90;999.90;;;;;;;;;;5068212;28;20195;-78
2024/01/03 07:49:55;;;;;;;1999.90;999.90;;;;;;;;;;5065643;28;20200;-76
2024/01/03 07:52:22;;;;;;;1999.90;999.90;;;;;;;;;;5067862;28;20205;-78
2024/01/03 07:54:50;;;;;;;1999.90;999.90;;;;;;;;;;5045740;28;20208;-70
2024/01/03 07:57:17;;;;;;;1999.90;999.90;;;;;;;;;;5067970;28;20221;-78
2024/01/03 07:59:45;;;;;;;1999.90;999.90;;;;;;;;;;5067245;28;20210;-69
2024/01/03 08:02:12;;;;;;;1999.90;999.90;;;;;;;;;;5066843;28;20208;-69
2024/01/03 08:04:40;;;;;;;1999.90;999.90;;;;;;;;;;5067422;28;20682;-68
2024/01/03 08:07:09;;;;;;;1999.90;999.90;;;;;;;;;;5066744;28;20207;-72
2024/01/03 08:09:37;;;;;;;1999.90;999.90;;;;;;;;;;5067777;28;20194;-75
2024/01/03 08:12:05;;;;;;;1999.90;999.90;;;;;;;;;;5065397;28;20984;-71
2024/01/03 08:14:34;;;;;;;1999.90;999.90;;;;;;;;;;5067515;28;20199;-74
2024/01/03 08:17:01;;;;;;;1999.90;999.90;;;;;;;;;;5067001;28;20211;-75
2024/01/03 08:19:28;;;;;;;1999.90;999.90;;;;;;;;;;5057603;28;20200;-72
2024/01/03 08:21:56;;;;;;;1999.90;999.90;;;;;;;;;;5064808;28;20199;-73
2024/01/03 08:24:25;;;;;;;1999.90;999.90;;;;;;;;;;5066924;28;20692;-73
2024/01/03 08:26:53;;;;;;;1999.90;999.90;;;;;;;;;;5068760;28;20193;-70
2024/01/03 08:29:20;;;;;;;1999.90;999.90;;;;;;;;;;5051073;28;20197;-69
2024/01/03 08:31:48;;;;;;;1999.90;999.90;;;;;;;;;;5067640;28;20250;-80
2024/01/03 08:34:16;;;;;;;1999.90;999.90;;;;;;;;;;5067318;28;20193;-72
2024/01/03 08:36:44;;;;;;;1999.90;999.90;;;;;;;;;;5048589;28;20895;-70
2024/01/03 08:39:11;;;;;;;1999.90;999.90;;;;;;;;;;5049689;28;20291;-70
2024/01/03 08:41:40;;;;;;;1999.90;999.90;;;;;;;;;;5066866;28;20205;-80
2024/01/03 08:44:07;;;;;;;1999.90;999.90;;;;;;;;;;5059281;28;20224;-75
2024/01/03 08:46:35;;;;;;;1999.90;999.90;;;;;;;;;;5067021;28;20981;-78
2024/01/03 08:49:04;;;;;;;1999.90;999.90;;;;;;;;;;5066932;28;20277;-77
2024/01/03 08:51:31;;;;;;;1999.90;999.90;;;;;;;;;;5067228;28;20216;-80
2024/01/03 08:53:59;;;;;;;1999.90;999.90;;;;;;;;;;5070994;28;20232;-81
2024/01/03 08:56:26;;;;;;;1999.90;999.90;;;;;;;;;;5072873;28;20210;-68
2024/01/03 08:58:55;;;;;;;1999.90;999.90;;;;;;;;;;5068710;28;20198;-77
2024/01/03 09:01:24;;;;;;;1999.90;999.90;;;;;;;;;;5067369;28;20197;-74
2024/01/03 09:03:52;;;;;;;1999.90;999.90;;;;;;;;;;5065799;28;20717;-74
2024/01/03 09:06:20;;;;;;;1999.90;999.90;;;;;;;;;;5065668;28;20199;-72
2024/01/03 09:08:50;;;;;;;1999.90;999.90;;;;;;;;;;5060357;28;20662;-68
2024/01/03 09:11:18;;;;;;;1999.90;999.90;;;;;;;;;;5046513;28;20290;-67
2024/01/03 09:13:49;;;;;;;1999.90;999.90;;;;;;;;;;5070161;28;20207;-78
2024/01/03 09:16:18;;;;;;;1999.90;999.90;;;;;;;;;;5050144;28;20197;-67
2024/01/03 09:18:46;;;;;;;1999.90;999.90;;;;;;;;;;5069801;28;20269;-71
2024/01/03 09:21:15;;;;;;;1999.90;999.90;;;;;;;;;;5068721;28;20233;-72
2024/01/03 09:23:42;;;;;;;1999.90;999.90;;;;;;;;;;5070008;28;20292;-76
2024/01/03 09:26:11;;;;;;;1999.90;999.90;;;;;;;;;;5068810;28;20223;-76
2024/01/03 09:28:39;;;;;;;1999.90;999.90;;;;;;;;;;5050925;28;20399;-70
2024/01/03 09:31:07;;;;;;;1999.90;999.90;;;;;;;;;;5051503;28;20197;-76
2024/01/03 09:33:35;;;;;;;1999.90;999.90;;;;;;;;;;5068266;28;20272;-70
2024/01/03 09:36:03;;;;;;;1999.90;999.90;;;;;;;;;;5068860;28;20227;-68
2024/01/03 09:38:30;;;;;;;1999.90;999.90;;;;;;;;;;5049747;28;20722;-72
2024/01/03 09:40:58;;;;;;;1999.90;999.90;;;;;;;;;;5062655;28;20195;-71
2024/01/03 09:43:25;;;;;;;1999.90;999.90;;;;;;;;;;5068364;28;20202;-70
2024/01/03 09:45:53;;;;;;;1999.90;999.90;;;;;;;;;;5037880;28;20221;-68
2024/01/03 09:48:19;;;;;;;1999.90;999.90;;;;;;;;;;5068420;28;20223;-73
2024/01/03 09:50:49;;;;;;;1999.90;999.90;;;;;;;;;;5050052;28;20236;-69
2024/01/03 09:53:17;;;;;;;1999.90;999.90;;;;;;;;;;5068984;28;20256;-74
2024/01/03 09:55:45;;;;;;;1999.90;999.90;;;;;;;;;;5068032;28;20642;-74
2024/01/03 09:58:12;;;;;;;1999.90;999.90;;;;;;;;;;5068590;28;20194;-73
2024/01/03 10:00:40;;;;;;;1999.90;999.90;;;;;;;;;;5049763;28;20218;-71
2024/01/03 10:03:08;;;;;;;1999.90;999.90;;;;;;;;;;5062085;28;20283;-66
2024/01/03 10:05:35;;;;;;;1999.90;999.90;;;;;;;;;;5068451;28;20283;-67
2024/01/03 10:08:14;;;;;;;1999.90;999.90;;;;;;;;;;5066378;28;20731;-67
2024/01/03 10:10:45;;;;;;;1999.90;999.90;;;;;;;;;;5068940;28;20214;-67
2024/01/03 10:13:19;;;;;;;1999.90;999.90;;;;;;;;;;5048511;28;20637;-66
2024/01/03 10:15:48;;;;;;;1999.90;999.90;;;;;;;;;;5068456;28;20222;-67
2024/01/03 10:18:16;;;;;;;1999.90;999.90;;;;;;;;;;5067114;28;20205;-74
2024/01/03 10:20:44;;;;;;;1999.90;999.90;;;;;;;;;;5067169;28;20570;-68
2024/01/03 10:23:12;;;;;;;1999.90;999.90;;;;;;;;;;5045081;28;20209;-66
2024/01/03 10:25:41;;;;;;;1999.90;999.90;;;;;;;;;;5066653;28;20217;-75
2024/01/03 10:28:09;;;;;;;1999.90;999.90;;;;;;;;;;5068426;28;20197;-71
2024/01/03 10:30:37;;;;;;;1999.90;999.90;;;;;;;;;;5066068;28;20214;-71
2024/01/03 10:33:05;;;;;;;1999.90;999.90;;;;;;;;;;5067959;28;20204;-67
2024/01/03 10:35:32;;;;;;;1999.90;999.90;;;;;;;;;;5067065;28;20252;-74
2024/01/03 10:38:01;;;;;;;1999.90;999.90;;;;;;;;;;5067410;28;20191;-66
2024/01/03 10:40:29;;;;;;;1999.90;999.90;;;;;;;;;;5049021;28;20203;-74
2024/01/03 10:42:58;;;;;;;1999.90;999.90;;;;;;;;;;5048616;28;20198;-70
2024/01/03 10:45:25;;;;;;;1999.90;999.90;;;;;;;;;;5067211;28;20222;-72
2024/01/03 10:47:53;;;;;;;1999.90;999.90;;;;;;;;;;5048501;28;20194;-68
2024/01/03 10:50:20;;;;;;;1999.90;999.90;;;;;;;;;;5067732;28;21728;-69
2024/01/03 10:52:48;;;;;;;1999.90;999.90;;;;;;;;;;5067415;28;20572;-73
2024/01/03 10:55:19;;;;;;;1999.90;999.90;;;;;;;;;;5066688;28;20202;-66
2024/01/03 10:57:52;;;;;;;1999.90;999.90;;;;;;;;;;5066850;28;20255;-67
2024/01/03 11:00:24;;;;;;;1999.90;999.90;;;;;;;;;;5065579;28;20191;-74
2024/01/03 11:02:55;;;;;;;1999.90;999.90;;;;;;;;;;5067926;28;20198;-72
2024/01/03 11:05:27;;;;;;;1999.90;999.90;;;;;;;;;;5065778;28;20218;-69
2024/01/03 11:07:56;;;;;;;1999.90;999.90;;;;;;;;;;5049109;28;20572;-66
2024/01/03 11:10:53;;;;;;;1999.90;999.90;;;;;;;;;;5065921;28;20205;-67
2024/01/03 11:13:27;;;;;;;1999.90;999.90;;;;;;;;;;5027901;28;20218;-67
2024/01/03 11:15:56;;;;;;;1999.90;999.90;;;;;;;;;;5067067;28;20210;-72
2024/01/03 11:18:42;;;;;;;1999.90;999.90;;;;;;;;;;5065491;28;20543;-66
2024/01/03 11:21:27;;;;;;;1999.90;999.90;;;;;;;;;;5066900;28;20206;-70
2024/01/03 11:23:54;;;;;;;1999.90;999.90;;;;;;;;;;5066382;28;20210;-65
2024/01/03 11:26:21;;;;;;;1999.90;999.90;;;;;;;;;;5064766;28;20239;-68
2024/01/03 11:28:50;;;;;;;1999.90;999.90;;;;;;;;;;5064763;28;20876;-69
2024/01/03 11:31:39;;;;;;;1999.90;999.90;;;;;;;;;;5065067;28;20198;-68
2024/01/03 11:34:32;;;;;;;1999.90;999.90;;;;;;;;;;5066460;28;20578;-72
2024/01/03 11:36:59;;;;;;;1999.90;999.90;;;;;;;;;;5059705;28;20708;-72
2024/01/03 11:39:36;;;;;;;1999.90;999.90;;;;;;;;;;5044049;28;20225;-72
2024/01/03 11:42:04;;;;;;;1999.90;999.90;;;;;;;;;;5067156;28;20205;-75
2024/01/03 11:44:31;;;;;;;1999.90;999.90;;;;;;;;;;5048458;28;20215;-76
2024/01/03 11:47:00;;;;;;;1999.90;999.90;;;;;;;;;;5048802;28;20214;-78
2024/01/03 11:49:28;;;;;;;1999.90;999.90;;;;;;;;;;5066678;28;20627;-76
2024/01/03 11:51:57;;;;;;;1999.90;999.90;;;;;;;;;;5066398;28;20557;-72
2024/01/03 11:54:25;;;;;;;1999.90;999.90;;;;;;;;;;5067450;28;20574;-82
2024/01/03 11:56:53;;;;;;;1999.90;999.90;;;;;;;;;;5066445;28;20194;-75
2024/01/03 11:59:21;;;;;;;1999.90;999.90;;;;;;;;;;5022750;28;20208;-77
2024/01/03 12:01:58;;;;;;;1999.90;999.90;;;;;;;;;;5067838;28;20201;-76
2024/01/03 12:04:27;;;;;;;1999.90;999.90;;;;;;;;;;5065964;28;20661;-67
2024/01/03 12:06:57;;;;;;;1999.90;999.90;;;;;;;;;;5065603;28;20224;-74
2024/01/03 12:09:28;;;;;;;1999.90;999.90;;;;;;;;;;5065564;28;20271;-76
2024/01/03 12:11:56;;;;;;;1999.90;999.90;;;;;;;;;;5067012;28;20255;-72
2024/01/03 12:14:23;;;;;;;1999.90;999.90;;;;;;;;;;5064653;28;20206;-67
2024/01/03 12:16:53;;;;;;;1999.90;999.90;;;;;;;;;;5067045;28;20212;-71
2024/01/03 12:19:24;;;;;;;1999.90;999.90;;;;;;;;;;5065721;28;20214;-67
2024/01/03 12:21:57;;;;;;;1999.90;999.90;;;;;;;;;;5051481;28;20204;-68
2024/01/03 12:24:38;;;;;;;1999.90;999.90;;;;;;;;;;5063683;28;20223;-71
2024/01/03 12:27:06;;;;;;;1999.90;999.90;;;;;;;;;;5069975;28;20313;-66
2024/01/03 12:29:34;;;;;;;1999.90;999.90;;;;;;;;;;5046883;28;20183;-67
2024/01/03 12:32:09;;;;;;;1999.90;999.90;;;;;;;;;;5069870;28;20418;-66
2024/01/03 12:34:37;;;;;;;1999.90;999.90;;;;;;;;;;5069901;28;20197;-74
2024/01/03 12:37:06;;;;;;;1999.90;999.90;;;;;;;;;;5051512;28;20240;-76
2024/01/03 12:39:36;;;;;;;1999.90;999.90;;;;;;;;;;5065347;28;20215;-70
2024/01/03 12:42:05;;;;;;;1999.90;999.90;;;;;;;;;;5070292;28;20208;-73
2024/01/03 12:44:32;;;;;;;1999.90;999.90;;;;;;;;;;5067229;28;20257;-69
2024/01/03 12:47:00;;;;;;;1999.90;999.90;;;;;;;;;;5057646;28;20324;-71
2024/01/03 12:49:27;;;;;;;1999.90;999.90;;;;;;;;;;5067727;28;20205;-73
2024/01/03 12:51:57;;;;;;;1999.90;999.90;;;;;;;;;;5070020;28;20549;-70
2024/01/03 12:54:25;;;;;;;1999.90;999.90;;;;;;;;;;5041866;28;20262;-69
2024/01/03 12:56:53;;;;;;;1999.90;999.90;;;;;;;;;;5068627;28;20285;-72
2024/01/03 12:59:20;;;;;;;1999.90;999.90;;;;;;;;;;5070109;28;20199;-71
2024/01/03 13:01:48;;;;;;;1999.90;999.90;;;;;;;;;;5067890;28;20191;-72
2024/01/03 13:04:15;;;;;;;1999.90;999.90;;;;;;;;;;5070018;28;20229;-69
2024/01/03 13:06:44;;;;;;;1999.90;999.90;;;;;;;;;;5068289;28;20223;-69
2024/01/03 13:09:12;;;;;;;1999.90;999.90;;;;;;;;;;5069528;28;20197;-71
2024/01/03 13:11:41;;;;;;;1999.90;999.90;;;;;;;;;;5050163;28;20198;-72
2024/01/03 13:14:08;;;;;;;1999.90;999.90;;;;;;;;;;5043764;28;20194;-72
2024/01/03 13:16:38;;;;;;;1999.90;999.90;;;;;;;;;;5070555;28;20210;-73
2024/01/03 13:19:06;;;;;;;1999.90;999.90;;;;;;;;;;5068682;28;20187;-76
2024/01/03 13:21:33;;;;;;;1999.90;999.90;;;;;;;;;;5068918;28;20524;-72
2024/01/03 13:24:00;;;;;;;1999.90;999.90;;;;;;;;;;5060965;28;20198;-71
2024/01/03 13:26:28;;;;;;;1999.90;999.90;;;;;;;;;;5065050;28;20222;-75
2024/01/03 13:28:57;;;;;;;1999.90;999.90;;;;;;;;;;5057649;28;20202;-72
2024/01/03 13:31:24;;;;;;;1999.90;999.90;;;;;;;;;;5068430;28;20195;-75
2024/01/03 13:33:51;;;;;;;1999.90;999.90;;;;;;;;;;5067775;28;20199;-75
2024/01/03 13:36:19;;;;;;;1999.90;999.90;;;;;;;;;;5057452;28;20661;-74
2024/01/03 13:38:46;;;;;;;1999.90;999.90;;;;;;;;;;5067308;28;20650;-75
2024/01/03 13:41:13;;;;;;;1999.90;999.90;;;;;;;;;;5050201;28;20209;-76
2024/01/03 13:43:41;;;;;;;1999.90;999.90;;;;;;;;;;5049990;28;20198;-73
2024/01/03 13:46:14;;;;;;;1999.90;999.90;;;;;;;;;;5068253;28;20229;-75
2024/01/03 13:48:41;;;;;;;1999.90;999.90;;;;;;;;;;5067083;28;20177;-75